DENAV EDLW-EDLW

Flight info

Callsign DENAV
Flight time 0h 4m
Altitude
Route VFR
Aircraft PA28

Departure

Time 2026-04-29 16:03
Airport Dortmund Airport (EDLW)

Arrival

Time 2026-04-29 16:07
Airport Dortmund Airport (EDLW)
Time Latitude Longitude Altitude Speed Heading
2026-04-29 15:58 51.51197 7.60399 457 ft 0 kts 196°
2026-04-29 15:58 51.51191 7.60337 454 ft 17 kts 265°
2026-04-29 15:58 51.51155 7.60179 454 ft 14 kts 304°
2026-04-29 15:59 51.51237 7.60280 439 ft 21 kts 61°
2026-04-29 15:59 51.51307 7.60492 437 ft 22 kts 60°
2026-04-29 15:59 51.51382 7.60691 436 ft 21 kts 59°
2026-04-29 15:59 51.51459 7.60910 429 ft 23 kts 60°
2026-04-29 16:00 51.51544 7.61059 425 ft 18 kts 351°
2026-04-29 16:00 51.51551 7.60875 416 ft 22 kts 248°
2026-04-29 16:00 51.51527 7.60713 415 ft 9 kts 259°
2026-04-29 16:00 51.51526 7.60708 415 ft 0 kts 262°
2026-04-29 16:01 51.51571 7.60599 414 ft 22 kts 329°
2026-04-29 16:02 51.51637 7.60670 416 ft 21 kts 61°
2026-04-29 16:02 51.51790 7.61111 435 ft 63 kts 58°
2026-04-29 16:02 51.52016 7.61752 664 ft 66 kts 58°
2026-04-29 16:02 51.52180 7.62208 819 ft 72 kts 58°
2026-04-29 16:03 51.52452 7.63067 1341 ft 63 kts 64°
2026-04-29 16:03 51.52648 7.63466 1363 ft 71 kts 51°
2026-04-29 16:03 51.53111 7.63746 1433 ft 77 kts 11°
2026-04-29 16:03 51.53658 7.63417 1451 ft 86 kts 343°
2026-04-29 16:04 51.54158 7.62797 1404 ft 101 kts 315°
2026-04-29 16:04 51.54227 7.61630 1362 ft 111 kts 253°
2026-04-29 16:04 51.53977 7.60495 1358 ft 106 kts 245°
2026-04-29 16:04 51.53687 7.59448 1396 ft 101 kts 239°
2026-04-29 16:05 51.53358 7.58480 1386 ft 96 kts 235°
2026-04-29 16:05 51.53005 7.57694 1315 ft 88 kts 212°
2026-04-29 16:05 51.52449 7.57307 1165 ft 87 kts 172°
2026-04-29 16:05 51.51877 7.57433 1097 ft 81 kts 150°
2026-04-29 16:06 51.51398 7.57766 994 ft 73 kts 139°
2026-04-29 16:06 51.51086 7.58360 837 ft 68 kts 102°
2026-04-29 16:06 51.51078 7.59033 709 ft 62 kts 64°
2026-04-29 16:06 51.51265 7.59616 597 ft 56 kts 57°
2026-04-29 16:07 51.51458 7.60159 488 ft 54 kts 57°
2026-04-29 16:07 51.51643 7.60679 421 ft 51 kts 58°
2026-04-29 16:07 51.51787 7.61089 416 ft 37 kts 60°
2026-04-29 16:07 51.51985 7.61640 491 ft 67 kts 59°
2026-04-29 16:08 51.52197 7.62305 780 ft 66 kts 57°
2026-04-29 16:08 51.52425 7.62969 1070 ft 72 kts 57°
2026-04-29 16:08 51.52768 7.63504 1387 ft 68 kts 38°
2026-04-29 16:08 51.53258 7.63566 1471 ft 79 kts 355°
2026-04-29 16:09 51.53756 7.63015 1376 ft 92 kts 334°
2026-04-29 16:09 51.54236 7.62427 1372 ft 86 kts 330°
2026-04-29 16:09 51.54548 7.61593 1366 ft 95 kts 288°
2026-04-29 16:09 51.54432 7.60494 1338 ft 101 kts 249°
2026-04-29 16:10 51.54162 7.59471 1311 ft 98 kts 245°
2026-04-29 16:10 51.53841 7.58532 1321 ft 94 kts 234°
2026-04-29 16:10 51.53400 7.57797 1216 ft 87 kts 200°
2026-04-29 16:10 51.52852 7.57517 1089 ft 80 kts 172°
2026-04-29 16:11 51.52330 7.57526 1002 ft 71 kts 155°
2026-04-29 16:11 51.51852 7.57701 942 ft 67 kts 146°
2026-04-29 16:11 51.51481 7.58128 867 ft 68 kts 123°
2026-04-29 16:11 51.51225 7.58729 791 ft 61 kts 94°
2026-04-29 16:12 51.51219 7.59349 669 ft 54 kts 66°
2026-04-29 16:12 51.51374 7.59907 524 ft 55 kts 58°
2026-04-29 16:12 51.51556 7.60432 434 ft 50 kts 57°
2026-04-29 16:12 51.51703 7.60847 415 ft 35 kts 58°
2026-04-29 16:13 51.51887 7.61377 469 ft 68 kts 61°
2026-04-29 16:13 51.52089 7.62045 757 ft 65 kts 61°
2026-04-29 16:13 51.52279 7.62701 1070 ft 66 kts 58°
2026-04-29 16:13 51.52498 7.63236 1433 ft 58 kts 60°
2026-04-29 16:14 51.52898 7.63661 1554 ft 80 kts 25°
2026-04-29 16:14 51.53508 7.63475 1542 ft 101 kts 350°
2026-04-29 16:14 51.54149 7.62923 1480 ft 107 kts 341°
2026-04-29 16:14 51.54617 7.61962 1471 ft 113 kts 297°
2026-04-29 16:15 51.54608 7.60717 1498 ft 114 kts 252°
2026-04-29 16:15 51.54296 7.59566 1482 ft 107 kts 243°
2026-04-29 16:15 51.53963 7.58537 1371 ft 104 kts 239°
2026-04-29 16:15 51.53643 7.57529 1293 ft 101 kts 245°
2026-04-29 16:16 51.53679 7.56483 1297 ft 90 kts 308°
2026-04-29 16:16 51.54149 7.55946 1331 ft 83 kts 356°
2026-04-29 16:16 51.54651 7.56103 1330 ft 70 kts 50°
2026-04-29 16:16 51.54986 7.56668 1347 ft 71 kts 51°
2026-04-29 16:17 51.55354 7.57184 1435 ft 70 kts 47°
2026-04-29 16:17 51.55774 7.57618 1455 ft 72 kts 46°
2026-04-29 16:17 51.56157 7.58134 1532 ft 73 kts 47°
2026-04-29 16:17 51.56552 7.58681 1495 ft 78 kts 51°
2026-04-29 16:18 51.56950 7.59289 1475 ft 81 kts 49°
2026-04-29 16:18 51.57358 7.59920 1521 ft 73 kts 51°
2026-04-29 16:18 51.57728 7.60483 1588 ft 72 kts 47°
2026-04-29 16:18 51.58142 7.60943 1637 ft 73 kts 42°
2026-04-29 16:19 51.58590 7.61333 1664 ft 73 kts 38°
2026-04-29 16:19 51.59034 7.61702 1775 ft 70 kts 37°
2026-04-29 16:19 51.59474 7.62088 1828 ft 73 kts 36°
2026-04-29 16:19 51.59909 7.62486 1996 ft 71 kts 42°
2026-04-29 16:20 51.60337 7.62939 2126 ft 82 kts 40°
2026-04-29 16:20 51.60866 7.63378 2247 ft 89 kts 30°
2026-04-29 16:20 51.61508 7.63624 2300 ft 101 kts 15°
2026-04-29 16:20 51.62233 7.63666 2336 ft 105 kts 13°
2026-04-29 16:21 51.62968 7.63702 2468 ft 107 kts
2026-04-29 16:21 51.63749 7.63593 2504 ft 110 kts
2026-04-29 16:21 51.64472 7.63268 2690 ft 110 kts 348°
2026-04-29 16:21 51.65151 7.62562 2773 ft 121 kts 328°
2026-04-29 16:22 51.65635 7.61415 2899 ft 130 kts 302°
2026-04-29 16:22 51.65839 7.59968 2961 ft 136 kts 279°
2026-04-29 16:22 51.65907 7.58453 3042 ft 134 kts 273°
2026-04-29 16:22 51.65846 7.56901 3087 ft 139 kts 269°
2026-04-29 16:23 51.65753 7.55336 3099 ft 143 kts 261°
2026-04-29 16:23 51.65295 7.54049 3099 ft 131 kts 191°
2026-04-29 16:23 51.64459 7.53321 3102 ft 135 kts 205°
2026-04-29 16:23 51.63680 7.52654 3209 ft 120 kts 182°
2026-04-29 16:24 51.63040 7.53098 3280 ft 95 kts 115°
2026-04-29 16:24 51.63030 7.54073 3368 ft 92 kts 64°
2026-04-29 16:24 51.63638 7.54457 3445 ft 110 kts
2026-04-29 16:24 51.64302 7.53708 3546 ft 127 kts 314°
2026-04-29 16:25 51.64474 7.52291 3598 ft 137 kts 258°
2026-04-29 16:25 51.63914 7.51199 3679 ft 124 kts 195°
2026-04-29 16:25 51.63163 7.51066 3631 ft 95 kts 166°
2026-04-29 16:25 51.62551 7.51063 3481 ft 85 kts 163°
2026-04-29 16:26 51.61968 7.51081 3267 ft 83 kts 161°
2026-04-29 16:26 51.61428 7.51262 3061 ft 69 kts 128°
2026-04-29 16:26 51.61610 7.51513 2798 ft 92 kts 326°
2026-04-29 16:26 51.61317 7.50881 2432 ft 86 kts 154°
2026-04-29 16:27 51.60760 7.51088 2296 ft 80 kts 150°
2026-04-29 16:27 51.60350 7.51422 2256 ft 53 kts 102°
2026-04-29 16:27 51.60468 7.51894 2108 ft 60 kts 45°
2026-04-29 16:27 51.60881 7.52208 2082 ft 69 kts 31°
2026-04-29 16:28 51.61341 7.52416 2091 ft 68 kts 26°
2026-04-29 16:28 51.61813 7.52565 2071 ft 70 kts 25°
2026-04-29 16:28 51.62298 7.52735 2018 ft 75 kts 28°
2026-04-29 16:28 51.62794 7.52913 2024 ft 77 kts 11°
2026-04-29 16:29 51.63301 7.52390 1952 ft 99 kts 313°
2026-04-29 16:29 51.63334 7.51326 1975 ft 97 kts 237°
2026-04-29 16:29 51.62820 7.50852 2022 ft 81 kts 171°
2026-04-29 16:29 51.62274 7.50917 1962 ft 78 kts 154°
2026-04-29 16:30 51.61758 7.51144 1932 ft 84 kts 144°
2026-04-29 16:30 51.61208 7.51561 2038 ft 94 kts 141°
2026-04-29 16:30 51.60588 7.52045 2096 ft 98 kts 142°
2026-04-29 16:30 51.59990 7.52540 2062 ft 98 kts 139°
2026-04-29 16:31 51.59375 7.53035 2023 ft 94 kts 140°
2026-04-29 16:31 51.58806 7.53481 2023 ft 89 kts 139°
2026-04-29 16:31 51.58256 7.53937 2056 ft 87 kts 138°
2026-04-29 16:31 51.57726 7.54368 2122 ft 80 kts 131°
2026-04-29 16:32 51.57316 7.54984 2113 ft 85 kts 128°
2026-04-29 16:32 51.56784 7.55461 2075 ft 92 kts 142°
2026-04-29 16:32 51.56157 7.55780 2046 ft 95 kts 150°
2026-04-29 16:32 51.55569 7.56186 2039 ft 91 kts 136°
2026-04-29 16:33 51.54648 7.57429 1800 ft 80 kts 121°
2026-04-29 16:33 51.54225 7.58017 1723 ft 83 kts 141°
2026-04-29 16:33 51.53628 7.58229 1610 ft 93 kts 168°
2026-04-29 16:34 51.53021 7.57791 1524 ft 103 kts 218°
2026-04-29 16:34 51.52691 7.56797 1328 ft 97 kts 257°
2026-04-29 16:34 51.52819 7.55862 1151 ft 85 kts 313°
2026-04-29 16:34 51.53240 7.55382 1096 ft 68 kts 354°
2026-04-29 16:35 51.53612 7.55563 1106 ft 52 kts 57°
2026-04-29 16:35 51.53657 7.56159 1146 ft 60 kts 94°
2026-04-29 16:35 51.53357 7.56648 1226 ft 72 kts 141°
2026-04-29 16:35 51.52794 7.56573 1260 ft 90 kts 192°
2026-04-29 16:36 51.52357 7.55781 1237 ft 102 kts 244°
2026-04-29 16:36 51.52118 7.54756 1320 ft 97 kts 238°
2026-04-29 16:36 51.51651 7.53982 1311 ft 94 kts 193°
2026-04-29 16:36 51.51096 7.53926 1342 ft 76 kts 153°
2026-04-29 16:37 51.50570 7.54264 1209 ft 85 kts 133°
2026-04-29 16:37 51.50152 7.54857 1203 ft 76 kts 114°
2026-04-29 16:37 51.50035 7.55612 1085 ft 76 kts 75°
2026-04-29 16:37 51.50146 7.56160 1042 ft 73 kts 69°
2026-04-29 16:38 51.50431 7.57189 939 ft 82 kts 63°
2026-04-29 16:38 51.50714 7.57998 845 ft 81 kts 60°
2026-04-29 16:38 51.50993 7.58778 704 ft 82 kts 62°
2026-04-29 16:38 51.51253 7.59532 615 ft 69 kts 63°
2026-04-29 16:39 51.51457 7.60143 491 ft 58 kts 61°
2026-04-29 16:39 51.51640 7.60677 426 ft 50 kts 59°
2026-04-29 16:39 51.51791 7.61094 415 ft 37 kts 59°
2026-04-29 16:39 51.51930 7.61478 409 ft 46 kts 61°
2026-04-29 16:40 51.52088 7.61942 407 ft 46 kts 60°
2026-04-29 16:40 51.52187 7.62308 404 ft 23 kts 132°
2026-04-29 16:40 51.52112 7.62380 404 ft 0 kts 165°
2026-04-29 16:42 51.52107 7.62384 403 ft 7 kts 157°
2026-04-29 16:42 51.52023 7.62307 404 ft 23 kts 239°
2026-04-29 16:42 51.51923 7.62023 407 ft 35 kts 238°
2026-04-29 16:42 51.51788 7.61641 413 ft 43 kts 241°
2026-04-29 16:43 51.51650 7.61247 422 ft 38 kts 240°
2026-04-29 16:43 51.51548 7.61055 425 ft 16 kts 160°
2026-04-29 16:43 51.51475 7.60954 425 ft 20 kts 236°
2026-04-29 16:43 51.51388 7.60708 431 ft 29 kts 242°
2026-04-29 16:44 51.51277 7.60397 440 ft 32 kts 239°
2026-04-29 16:44 51.51177 7.60162 450 ft 15 kts 174°
2026-04-29 16:44 51.51200 7.60308 451 ft 18 kts 57°
2026-04-29 16:44 51.51199 7.60392 456 ft 0 kts 116°
2026-04-29 16:47 51.51199 7.60391 456 ft 1 kts 114°
2026-04-29 16:47 51.51203 7.60360 453 ft 0 kts 92°